createdAt,value
2019-04-06T00:00:37.820Z,95.70
2019-04-06T00:03:06.313Z,96.00
2019-04-06T00:05:34.788Z,96.10
2019-04-06T00:08:03.591Z,96.10
2019-04-06T00:10:32.075Z,96.10
2019-04-06T00:13:00.585Z,96.10
2019-04-06T00:15:29.432Z,96.20
2019-04-06T00:17:57.916Z,96.20
2019-04-06T00:20:26.376Z,96.20
2019-04-06T00:22:54.825Z,96.20
2019-04-06T00:25:23.296Z,96.20
2019-04-06T00:27:51.795Z,96.20
2019-04-06T00:30:20.733Z,96.20
2019-04-06T00:32:56.562Z,96.20
2019-04-06T00:35:25.046Z,96.20
2019-04-06T00:37:53.527Z,96.40
2019-04-06T00:40:21.999Z,96.40
2019-04-06T00:42:50.451Z,96.40
2019-04-06T00:45:18.974Z,96.50
2019-04-06T00:47:47.458Z,96.50
2019-04-06T00:50:15.989Z,96.60
2019-04-06T00:52:44.450Z,96.70
2019-04-06T00:55:13.507Z,96.70
2019-04-06T00:57:42.284Z,96.60
2019-04-06T01:00:11.096Z,96.70
2019-04-06T01:02:39.582Z,96.80
2019-04-06T01:05:09.158Z,97.00
2019-04-06T01:07:37.620Z,97.10
2019-04-06T01:10:06.809Z,97.20
2019-04-06T01:12:35.311Z,97.20
2019-04-06T01:15:04.807Z,97.20
2019-04-06T01:17:33.374Z,97.20
2019-04-06T01:20:02.199Z,97.20
2019-04-06T01:22:30.981Z,97.20
2019-04-06T01:24:59.530Z,97.10
2019-04-06T01:27:28.026Z,97.10
2019-04-06T01:29:56.459Z,97.10
2019-04-06T01:32:24.913Z,97.10
2019-04-06T01:34:53.388Z,97.20
2019-04-06T01:37:21.843Z,97.20
2019-04-06T01:39:50.295Z,97.20
2019-04-06T01:42:18.844Z,97.30
2019-04-06T01:44:47.311Z,97.20
2019-04-06T01:47:16.072Z,97.20
2019-04-06T01:49:44.867Z,97.30
2019-04-06T01:52:13.653Z,97.30
2019-04-06T01:54:42.424Z,97.50
2019-04-06T01:57:10.885Z,97.50
2019-04-06T01:59:39.407Z,97.50
2019-04-06T02:02:12.279Z,97.40
2019-04-06T02:04:40.719Z,97.40
2019-04-06T02:07:09.167Z,97.40
2019-04-06T02:09:37.632Z,97.50
2019-04-06T02:12:06.175Z,97.50
2019-04-06T02:14:34.635Z,97.60
2019-04-06T02:17:03.483Z,97.60
2019-04-06T02:19:32.036Z,97.60
2019-04-06T02:22:01.132Z,97.50
2019-04-06T02:24:29.626Z,97.50
2019-04-06T02:26:58.091Z,97.60
2019-04-06T02:29:26.564Z,97.70
2019-04-06T02:32:05.679Z,97.60
2019-04-06T02:34:53.972Z,97.70
2019-04-06T02:37:24.087Z,97.60
2019-04-06T02:40:03.097Z,97.50
2019-04-06T02:42:33.194Z,97.50
2019-04-06T02:45:01.761Z,97.40
2019-04-06T02:47:30.385Z,97.40
2019-04-06T02:49:58.926Z,97.50
2019-04-06T02:52:27.387Z,97.60
2019-04-06T02:54:55.854Z,97.70
2019-04-06T02:57:24.329Z,98.70
2019-04-06T02:59:52.795Z,99.00
2019-04-06T03:02:21.254Z,98.90
2019-04-06T03:04:49.728Z,98.70
2019-04-06T03:07:18.196Z,98.60
2019-04-06T03:09:46.655Z,98.60
2019-04-06T03:12:15.128Z,98.50
2019-04-06T03:14:44.720Z,98.50
2019-04-06T03:17:13.524Z,98.60
2019-04-06T03:19:42.011Z,98.60
2019-04-06T03:22:10.464Z,98.60
2019-04-06T03:24:39.173Z,98.60
2019-04-06T03:27:07.773Z,98.80
2019-04-06T03:29:36.238Z,98.60
2019-04-06T03:32:04.813Z,98.60
2019-04-06T03:34:33.549Z,98.50
2019-04-06T03:37:02.790Z,98.60
2019-04-06T03:39:31.578Z,98.60
2019-04-06T03:42:00.064Z,98.60
2019-04-06T03:44:28.592Z,98.60
2019-04-06T03:46:57.071Z,98.60
2019-04-06T03:49:25.578Z,98.50
2019-04-06T03:51:54.429Z,98.50
2019-04-06T03:54:22.953Z,98.40
2019-04-06T03:56:51.419Z,98.40
2019-04-06T03:59:19.933Z,98.20
2019-04-06T04:01:48.659Z,98.20
2019-04-06T04:04:17.603Z,98.20
2019-04-06T04:06:46.136Z,98.20
2019-04-06T04:09:14.592Z,98.20
2019-04-06T04:11:43.039Z,98.20
2019-04-06T04:14:11.892Z,98.20
2019-04-06T04:16:40.428Z,98.20
2019-04-06T04:19:09.028Z,98.20
2019-04-06T04:21:37.554Z,98.10
2019-04-06T04:24:06.038Z,98.20
2019-04-06T04:26:34.604Z,98.20
2019-04-06T04:29:03.164Z,98.10
2019-04-06T04:31:31.977Z,98.20
2019-04-06T04:34:00.704Z,98.30
2019-04-06T04:36:29.533Z,98.30
2019-04-06T04:38:58.297Z,98.30
2019-04-06T04:41:27.021Z,98.30
2019-04-06T04:43:55.491Z,98.30
2019-04-06T04:46:24.161Z,98.30
2019-04-06T04:48:52.801Z,98.30
2019-04-06T04:51:21.302Z,98.40
2019-04-06T04:53:49.759Z,98.40
2019-04-06T04:56:18.216Z,98.40
2019-04-06T04:58:46.683Z,98.40
2019-04-06T05:01:15.238Z,98.40
2019-04-06T05:03:43.992Z,98.40
2019-04-06T05:06:12.469Z,98.30
2019-04-06T05:08:40.990Z,98.30
2019-04-06T05:11:09.626Z,98.30
2019-04-06T05:13:38.444Z,98.40
2019-04-06T05:16:13.480Z,98.60
2019-04-06T05:18:43.093Z,98.60
2019-04-06T05:21:12.197Z,98.50
2019-04-06T05:23:40.859Z,98.50
2019-04-06T05:26:09.665Z,98.50
2019-04-06T05:28:38.118Z,98.50
2019-04-06T05:31:06.959Z,98.40
2019-04-06T05:33:35.407Z,98.40
2019-04-06T05:36:04.337Z,98.30
2019-04-06T05:38:32.824Z,98.30
2019-04-06T05:41:01.268Z,98.20
2019-04-06T05:43:29.723Z,98.20
2019-04-06T05:45:58.191Z,98.20
2019-04-06T05:48:26.744Z,98.00
2019-04-06T05:50:55.319Z,97.90
2019-04-06T05:53:23.767Z,97.90
2019-04-06T05:55:52.431Z,97.80
2019-04-06T05:58:20.988Z,97.70
2019-04-06T06:00:49.443Z,97.50
2019-04-06T06:03:18.091Z,97.30
2019-04-06T06:05:46.877Z,97.20
2019-04-06T06:08:15.382Z,97.10
2019-04-06T06:10:43.889Z,97.00
2019-04-06T06:13:12.377Z,97.00
2019-04-06T06:15:40.888Z,96.90
2019-04-06T06:18:09.383Z,96.70
2019-04-06T06:20:37.918Z,96.70
2019-04-06T06:23:06.385Z,96.50
2019-04-06T06:25:35.212Z,96.20
2019-04-06T06:28:13.792Z,96.10
2019-04-06T06:30:33.873Z,96.00
2019-04-06T06:33:02.360Z,95.80
2019-04-06T06:35:30.982Z,95.30
2019-04-06T06:37:59.715Z,93.90
2019-04-06T06:40:28.161Z,93.70
2019-04-06T06:42:57.036Z,93.60
2019-04-06T06:45:25.495Z,93.90
2019-04-06T06:47:53.987Z,94.10
2019-04-06T06:50:22.443Z,94.30
2019-04-06T06:52:50.902Z,94.00
2019-04-06T06:55:19.447Z,93.80
2019-04-06T06:57:48.047Z,93.30
2019-04-06T07:00:16.990Z,93.10
2019-04-06T07:02:45.501Z,92.80
2019-04-06T07:05:14.421Z,92.70
2019-04-06T07:07:42.951Z,92.90
2019-04-06T07:10:12.060Z,92.80
2019-04-06T07:12:40.542Z,92.50
2019-04-06T07:15:09.213Z,91.80
2019-04-06T07:17:37.922Z,91.70
2019-04-06T07:20:07.537Z,90.10
2019-04-06T07:22:36.779Z,89.10
2019-04-06T07:25:06.814Z,89.30
2019-04-06T07:27:35.266Z,89.60
2019-04-06T07:30:07.825Z,88.60
2019-04-06T07:32:36.320Z,88.10
2019-04-06T07:35:06.115Z,87.30
2019-04-06T07:37:34.586Z,88.10
2019-04-06T07:40:03.708Z,87.30
2019-04-06T07:42:32.351Z,87.30
2019-04-06T07:45:00.985Z,85.20
2019-04-06T07:47:29.430Z,86.50
2019-04-06T07:49:57.892Z,85.30
2019-04-06T07:52:26.526Z,85.20
2019-04-06T07:54:55.090Z,83.40
2019-04-06T07:57:23.552Z,82.70
2019-04-06T07:59:52.203Z,82.20
2019-04-06T08:02:20.934Z,82.60
2019-04-06T08:04:49.380Z,80.70
2019-04-06T08:07:17.835Z,78.10
2019-04-06T08:09:46.573Z,77.20
2019-04-06T08:12:15.309Z,76.20
2019-04-06T08:14:43.795Z,76.60
2019-04-06T08:17:12.247Z,76.50
2019-04-06T08:19:40.703Z,76.60
2019-04-06T08:22:09.151Z,76.70
2019-04-06T08:24:37.603Z,74.20
2019-04-06T08:27:06.059Z,73.40
2019-04-06T08:29:34.605Z,73.70
2019-04-06T08:32:03.506Z,73.10
2019-04-06T08:34:31.987Z,71.30
2019-04-06T08:37:00.440Z,69.80
2019-04-06T08:39:28.907Z,69.80
2019-04-06T08:41:57.428Z,69.50
2019-04-06T08:44:26.465Z,71.60
2019-04-06T08:46:54.987Z,70.90
2019-04-06T08:49:23.467Z,69.60
2019-04-06T08:51:52.008Z,69.40
2019-04-06T08:54:20.472Z,69.10
2019-04-06T08:56:49.268Z,68.90
2019-04-06T08:59:17.763Z,70.10
2019-04-06T09:01:46.219Z,68.30
2019-04-06T09:04:14.679Z,69.10
2019-04-06T09:06:43.136Z,68.60
2019-04-06T09:09:11.957Z,67.90
2019-04-06T09:11:40.815Z,67.70
2019-04-06T09:14:09.375Z,66.80
2019-04-06T09:16:37.839Z,67.30
2019-04-06T09:19:06.314Z,66.30
2019-04-06T09:21:34.836Z,67.80
2019-04-06T09:24:03.803Z,67.60
2019-04-06T09:26:32.499Z,67.60
2019-04-06T09:29:00.956Z,67.40
2019-04-06T09:31:29.504Z,67.60
2019-04-06T09:33:58.081Z,67.70
2019-04-06T09:36:26.512Z,68.00
2019-04-06T09:38:55.250Z,68.80
2019-04-06T09:41:26.026Z,67.00
2019-04-06T09:43:53.883Z,67.40
2019-04-06T09:46:32.683Z,67.20
2019-04-06T09:49:18.368Z,66.60
2019-04-06T09:52:04.879Z,65.70
2019-04-06T09:54:40.443Z,66.90
2019-04-06T09:57:19.528Z,66.20
2019-04-06T09:59:55.700Z,66.90
2019-04-06T10:02:42.128Z,67.80
2019-04-06T10:05:21.838Z,66.50
2019-04-06T10:07:54.646Z,67.90
2019-04-06T10:10:40.125Z,68.80
2019-04-06T10:13:13.111Z,67.70
2019-04-06T10:16:01.455Z,69.30
2019-04-06T10:18:40.218Z,64.00
2019-04-06T10:21:10.381Z,64.40
2019-04-06T10:23:56.723Z,65.80
2019-04-06T10:26:42.771Z,63.80
2019-04-06T10:29:31.904Z,63.90
2019-04-06T10:32:04.934Z,63.60
2019-04-06T10:34:43.777Z,63.10
2019-04-06T10:37:16.641Z,61.90
2019-04-06T10:39:58.724Z,63.90
2019-04-06T10:42:31.798Z,63.50
2019-04-06T10:45:07.368Z,64.30
2019-04-06T10:47:43.437Z,63.10
2019-04-06T10:50:19.699Z,62.30
2019-04-06T10:52:58.882Z,62.50
2019-04-06T10:55:38.188Z,63.70
2019-04-06T10:58:20.739Z,63.70
2019-04-06T11:00:53.773Z,63.00
2019-04-06T11:03:30.051Z,62.20
2019-04-06T11:06:03.439Z,62.10
2019-04-06T11:08:33.789Z,62.10
2019-04-06T11:11:04.483Z,62.30
2019-04-06T11:13:43.894Z,61.70
2019-04-06T11:16:23.302Z,64.30
2019-04-06T11:18:56.525Z,63.00
2019-04-06T11:21:42.970Z,63.90
2019-04-06T11:24:29.240Z,61.00
2019-04-06T11:26:59.341Z,62.80
2019-04-06T11:29:29.472Z,65.20
2019-04-06T11:31:59.602Z,63.80
2019-04-06T11:34:45.816Z,61.10
2019-04-06T11:37:19.042Z,61.00
2019-04-06T11:39:49.128Z,61.30
2019-04-06T11:42:19.338Z,61.00
2019-04-06T11:45:07.659Z,61.30
2019-04-06T11:47:40.376Z,61.70
2019-04-06T11:50:26.918Z,61.70
2019-04-06T11:52:56.997Z,61.30
2019-04-06T11:55:33.606Z,61.30
2019-04-06T11:58:03.728Z,63.00
2019-04-06T12:00:36.285Z,62.90
2019-04-06T12:03:06.644Z,62.70
2019-04-06T12:05:37.148Z,62.60
2019-04-06T12:08:25.084Z,61.90
2019-04-06T12:11:01.160Z,63.90
2019-04-06T12:13:40.112Z,63.80
2019-04-06T12:16:16.658Z,62.00
2019-04-06T12:18:47.388Z,61.30
2019-04-06T12:21:32.528Z,61.40
2019-04-06T12:24:11.969Z,61.70
2019-04-06T12:26:57.134Z,62.80
2019-04-06T12:29:27.229Z,61.70
2019-04-06T12:32:06.251Z,63.40
2019-04-06T12:34:48.439Z,64.90
2019-04-06T12:37:21.606Z,64.10
2019-04-06T12:40:08.195Z,65.00
2019-04-06T12:42:38.632Z,65.30
2019-04-06T12:45:26.130Z,66.60
2019-04-06T12:48:08.060Z,67.20
2019-04-06T12:50:55.062Z,66.50
2019-04-06T12:53:42.002Z,67.40
2019-04-06T12:56:12.089Z,67.70
2019-04-06T12:58:51.392Z,68.20
2019-04-06T13:01:38.407Z,67.70
2019-04-06T13:04:14.482Z,67.90
2019-04-06T13:07:00.785Z,68.40
2019-04-06T13:09:30.880Z,67.10
2019-04-06T13:12:12.707Z,67.80
2019-04-06T13:14:51.663Z,68.10
2019-04-06T13:17:38.615Z,68.40
2019-04-06T13:20:16.420Z,68.40
2019-04-06T13:22:52.555Z,68.20
2019-04-06T13:25:37.619Z,68.80
2019-04-06T13:28:07.743Z,68.20
2019-04-06T13:31:00.942Z,68.20
2019-04-06T13:33:33.659Z,68.80
2019-04-06T13:36:06.781Z,68.10
2019-04-06T13:38:39.920Z,67.40
2019-04-06T13:41:10.393Z,66.90
2019-04-06T13:43:52.555Z,66.40
2019-04-06T13:46:28.445Z,67.20
2019-04-06T13:49:07.946Z,67.20
2019-04-06T13:51:38.283Z,64.60
2019-04-06T13:54:25.586Z,65.20
2019-04-06T13:57:04.251Z,65.00
2019-04-06T13:59:49.385Z,64.60
2019-04-06T14:02:35.900Z,65.70
2019-04-06T14:05:26.058Z,66.60
2019-04-06T14:08:02.199Z,67.30
2019-04-06T14:10:48.636Z,66.70
2019-04-06T14:13:21.487Z,67.30
2019-04-06T14:15:54.682Z,66.90
2019-04-06T14:18:41.271Z,67.10
2019-04-06T14:21:11.373Z,67.20
2019-04-06T14:23:44.860Z,66.30
2019-04-06T14:26:31.141Z,64.00
2019-04-06T14:29:10.031Z,62.60
2019-04-06T14:31:48.793Z,60.60
2019-04-06T14:34:35.431Z,61.70
2019-04-06T14:37:11.495Z,61.50
2019-04-06T14:39:50.674Z,62.50
2019-04-06T14:42:32.870Z,62.00
2019-04-06T14:45:08.518Z,62.50
2019-04-06T14:47:54.983Z,62.00
2019-04-06T14:50:41.701Z,63.10
2019-04-06T14:53:11.980Z,62.30
2019-04-06T14:55:48.274Z,62.90
2019-04-06T14:58:30.403Z,63.10
2019-04-06T15:01:06.275Z,65.10
2019-04-06T15:03:36.691Z,64.20
2019-04-06T15:06:18.732Z,63.70
2019-04-06T15:08:52.001Z,63.90
2019-04-06T15:11:22.704Z,59.70
2019-04-06T15:13:56.297Z,58.40
2019-04-06T15:16:29.131Z,56.20
2019-04-06T15:18:59.287Z,56.50
2019-04-06T15:21:29.388Z,54.20
2019-04-06T15:24:02.502Z,54.60
2019-04-06T15:26:35.287Z,54.80
2019-04-06T15:29:05.739Z,56.90
2019-04-06T15:31:52.519Z,57.60
2019-04-06T15:34:39.373Z,57.40
2019-04-06T15:37:09.645Z,58.20
2019-04-06T15:39:54.673Z,59.60
2019-04-06T15:42:33.519Z,61.40
2019-04-06T15:45:20.019Z,62.00
2019-04-06T15:47:58.621Z,61.10
2019-04-06T15:50:29.041Z,62.20
2019-04-06T15:53:16.106Z,62.00
2019-04-06T15:56:02.681Z,61.70
2019-04-06T15:58:38.216Z,62.00
2019-04-06T16:01:26.758Z,62.20
2019-04-06T16:03:56.867Z,62.40
2019-04-06T16:06:32.691Z,63.00
2019-04-06T16:09:02.819Z,62.60
2019-04-06T16:11:49.415Z,62.10
2019-04-06T16:14:31.784Z,62.30
2019-04-06T16:17:01.913Z,62.70
2019-04-06T16:19:49.723Z,63.70
2019-04-06T16:22:25.825Z,63.60
2019-04-06T16:24:55.896Z,64.60
2019-04-06T16:27:28.676Z,64.10
2019-04-06T16:29:58.781Z,62.60
2019-04-06T16:32:37.658Z,60.80
2019-04-06T16:35:13.687Z,59.80
2019-04-06T16:37:44.153Z,60.30
2019-04-06T16:40:20.057Z,60.80
2019-04-06T16:43:05.704Z,61.40
2019-04-06T16:45:36.742Z,62.40
2019-04-06T16:48:13.435Z,61.40
2019-04-06T16:50:43.567Z,60.80
2019-04-06T16:53:13.668Z,59.20
2019-04-06T16:55:46.632Z,57.50
2019-04-06T16:58:16.800Z,57.20
2019-04-06T17:00:47.308Z,57.50
2019-04-06T17:03:17.979Z,57.40
2019-04-06T17:05:48.494Z,59.00
2019-04-06T17:08:27.579Z,59.70
2019-04-06T17:11:06.927Z,60.70
2019-04-06T17:13:43.284Z,62.00
2019-04-06T17:16:29.565Z,63.20
2019-04-06T17:19:12.142Z,64.40
2019-04-06T17:21:43.115Z,65.80
2019-04-06T17:24:18.890Z,67.00
2019-04-06T17:26:51.707Z,68.10
2019-04-06T17:29:39.818Z,69.10
2019-04-06T17:32:09.936Z,69.50
2019-04-06T17:34:54.881Z,69.60
2019-04-06T17:37:20.991Z,70.10
2019-04-06T17:39:54.180Z,70.70
2019-04-06T17:42:40.503Z,71.10
2019-04-06T17:45:27.587Z,72.10
2019-04-06T17:48:13.540Z,72.60
2019-04-06T17:50:43.819Z,73.00
2019-04-06T17:53:16.595Z,73.40
2019-04-06T17:55:46.886Z,73.80
2019-04-06T17:58:19.911Z,73.90
2019-04-06T18:00:53.046Z,74.20
2019-04-06T18:03:28.931Z,74.80
2019-04-06T18:06:11.243Z,75.00
2019-04-06T18:08:41.504Z,75.30
2019-04-06T18:11:17.112Z,75.30
2019-04-06T18:13:47.348Z,75.50
2019-04-06T18:16:16.608Z,75.50
2019-04-06T18:18:45.593Z,75.60
2019-04-06T18:21:14.615Z,76.40
2019-04-06T18:23:43.099Z,77.00
2019-04-06T18:26:11.868Z,77.40
2019-04-06T18:28:40.800Z,77.90
2019-04-06T18:31:11.163Z,78.40
2019-04-06T18:33:40.145Z,78.80
2019-04-06T18:36:08.897Z,79.30
2019-04-06T18:38:38.964Z,79.70
2019-04-06T18:41:07.466Z,80.00
2019-04-06T18:43:35.913Z,80.20
2019-04-06T18:46:04.670Z,80.50
2019-04-06T18:48:33.851Z,80.30
2019-04-06T18:51:02.614Z,80.50
2019-04-06T18:53:31.031Z,80.80
2019-04-06T18:55:59.460Z,81.20
2019-04-06T18:58:27.888Z,81.60
2019-04-06T19:00:56.321Z,82.20
2019-04-06T19:03:25.403Z,82.50
2019-04-06T19:05:54.501Z,82.80
2019-04-06T19:08:23.360Z,82.90
2019-04-06T19:10:52.575Z,83.20
2019-04-06T19:13:21.607Z,83.50
2019-04-06T19:15:50.174Z,83.90
2019-04-06T19:18:19.139Z,84.20
2019-04-06T19:20:48.224Z,84.20
2019-04-06T19:23:17.370Z,84.50
2019-04-06T19:25:45.959Z,84.90
2019-04-06T19:28:14.436Z,85.20
2019-04-06T19:30:42.906Z,85.30
2019-04-06T19:33:22.727Z,85.50
2019-04-06T19:35:41.819Z,85.50
2019-04-06T19:38:10.744Z,85.50
2019-04-06T19:40:39.577Z,85.80
2019-04-06T19:43:08.074Z,85.60
2019-04-06T19:45:36.537Z,86.00
2019-04-06T19:48:05.024Z,86.20
2019-04-06T19:50:33.826Z,86.50
2019-04-06T19:53:02.285Z,86.80
2019-04-06T19:55:30.867Z,86.80
2019-04-06T19:57:59.758Z,87.10
2019-04-06T20:00:28.483Z,87.40
2019-04-06T20:02:57.901Z,87.60
2019-04-06T20:05:26.566Z,87.90
2019-04-06T20:07:55.014Z,88.00
2019-04-06T20:10:23.502Z,88.60
2019-04-06T20:12:52.131Z,88.60
2019-04-06T20:15:20.611Z,88.50
2019-04-06T20:17:49.060Z,88.50
2019-04-06T20:20:17.513Z,88.40
2019-04-06T20:22:45.971Z,88.60
2019-04-06T20:25:15.026Z,88.40
2019-04-06T20:27:43.530Z,88.70
2019-04-06T20:30:12.307Z,88.90
2019-04-06T20:32:40.915Z,88.80
2019-04-06T20:35:09.831Z,88.80
2019-04-06T20:37:38.603Z,89.20
2019-04-06T20:40:08.696Z,89.40
2019-04-06T20:42:37.488Z,89.60
2019-04-06T20:45:08.246Z,90.00
2019-04-06T20:47:37.090Z,90.10
2019-04-06T20:50:09.261Z,90.10
2019-04-06T20:52:38.407Z,90.20
2019-04-06T20:55:08.045Z,90.30
2019-04-06T20:57:36.528Z,90.20
2019-04-06T21:00:07.203Z,90.10
2019-04-06T21:02:35.922Z,90.10
2019-04-06T21:05:06.834Z,90.70
2019-04-06T21:07:35.321Z,90.90
2019-04-06T21:10:05.385Z,91.20
2019-04-06T21:12:34.251Z,91.20
2019-04-06T21:15:16.000Z,91.20
2019-04-06T21:17:34.270Z,91.30
2019-04-06T21:20:03.214Z,91.30
2019-04-06T21:22:31.667Z,91.30
2019-04-06T21:25:00.516Z,91.40
2019-04-06T21:27:28.966Z,91.70
2019-04-06T21:29:57.803Z,91.50
2019-04-06T21:32:26.345Z,91.60
2019-04-06T21:34:54.883Z,91.70
2019-04-06T21:37:24.205Z,91.70
2019-04-06T21:39:53.274Z,91.90
2019-04-06T21:42:21.952Z,92.30
2019-04-06T21:44:50.461Z,92.40
2019-04-06T21:47:19.392Z,92.40
2019-04-06T21:49:48.158Z,92.50
2019-04-06T21:52:16.863Z,92.50
2019-04-06T21:54:45.502Z,92.60
2019-04-06T21:57:14.193Z,92.80
2019-04-06T21:59:42.743Z,93.00
2019-04-06T22:02:11.609Z,93.10
2019-04-06T22:04:40.178Z,93.40
2019-04-06T22:07:08.848Z,93.60
2019-04-06T22:09:37.342Z,93.30
2019-04-06T22:12:06.112Z,93.30
2019-04-06T22:14:35.894Z,93.50
2019-04-06T22:17:06.303Z,93.60
2019-04-06T22:19:34.835Z,93.60
2019-04-06T22:22:03.646Z,93.60
2019-04-06T22:24:32.761Z,93.70
2019-04-06T22:27:01.802Z,93.90
2019-04-06T22:29:30.456Z,93.90
2019-04-06T22:31:59.555Z,93.90
2019-04-06T22:34:36.441Z,93.90
2019-04-06T22:36:59.394Z,93.90
2019-04-06T22:39:28.402Z,93.90
2019-04-06T22:41:57.151Z,93.90
2019-04-06T22:44:25.855Z,93.80
2019-04-06T22:46:54.359Z,94.00
2019-04-06T22:49:22.800Z,94.00
2019-04-06T22:51:51.603Z,94.00
2019-04-06T22:54:21.275Z,93.80
2019-04-06T22:56:49.949Z,93.50
2019-04-06T22:59:18.878Z,93.20
2019-04-06T23:01:47.543Z,93.30
2019-04-06T23:04:33.236Z,93.30
2019-04-06T23:07:09.754Z,93.30
2019-04-06T23:09:38.366Z,93.50
2019-04-06T23:12:07.420Z,93.60
2019-04-06T23:14:36.647Z,93.80
2019-04-06T23:17:05.482Z,94.00
2019-04-06T23:19:33.915Z,94.30
2019-04-06T23:22:02.664Z,94.40
2019-04-06T23:24:31.746Z,94.50
2019-04-06T23:27:00.723Z,94.90
2019-04-06T23:29:30.471Z,95.40
2019-04-06T23:31:58.950Z,95.60
2019-04-06T23:34:27.424Z,95.70
2019-04-06T23:36:55.947Z,95.70
2019-04-06T23:39:24.378Z,95.70
2019-04-06T23:41:52.972Z,95.70
2019-04-06T23:44:21.472Z,96.10
2019-04-06T23:46:49.919Z,96.00
2019-04-06T23:49:19.054Z,96.10
2019-04-06T23:51:48.097Z,96.10
2019-04-06T23:54:16.606Z,96.30
2019-04-06T23:56:45.083Z,96.30
2019-04-06T23:59:13.627Z,96.10
